createdAt,value
2023-10-26T00:01:33.486Z,107.17
2023-10-26T00:04:02.001Z,107.33
2023-10-26T00:06:30.420Z,107.24
2023-10-26T00:09:00.051Z,107.04
2023-10-26T00:11:28.340Z,106.70
2023-10-26T00:13:56.569Z,106.59
2023-10-26T00:16:24.813Z,106.66
2023-10-26T00:18:53.156Z,106.56
2023-10-26T00:21:22.217Z,106.92
2023-10-26T00:23:50.621Z,107.04
2023-10-26T00:26:20.397Z,106.79
2023-10-26T00:28:51.532Z,106.89
2023-10-26T00:31:19.958Z,106.67
2023-10-26T00:33:48.394Z,106.95
2023-10-26T00:36:16.968Z,107.07
2023-10-26T00:38:45.259Z,107.27
2023-10-26T00:41:14.309Z,107.05
2023-10-26T00:43:43.929Z,107.10
2023-10-26T00:46:12.817Z,107.16
2023-10-26T00:48:41.812Z,107.16
2023-10-26T00:51:10.564Z,107.10
2023-10-26T00:53:41.545Z,106.87
2023-10-26T00:56:13.062Z,106.91
2023-10-26T00:58:43.635Z,106.74
2023-10-26T01:01:12.320Z,106.57
2023-10-26T01:03:41.929Z,106.96
2023-10-26T01:06:10.681Z,106.95
2023-10-26T01:08:39.273Z,107.21
2023-10-26T01:11:08.320Z,107.27
2023-10-26T01:13:38.172Z,107.54
2023-10-26T01:16:09.235Z,107.79
2023-10-26T01:18:37.644Z,107.69
2023-10-26T01:21:06.610Z,107.76
2023-10-26T01:23:36.233Z,107.66
2023-10-26T01:26:04.630Z,107.98
2023-10-26T01:28:31.871Z,108.15
2023-10-26T01:31:00.244Z,108.34
2023-10-26T01:33:29.001Z,108.40
2023-10-26T01:35:57.363Z,108.41
2023-10-26T01:38:25.794Z,108.17
2023-10-26T01:40:55.431Z,107.75
2023-10-26T01:43:25.747Z,107.62
2023-10-26T01:45:54.069Z,107.72
2023-10-26T01:48:22.354Z,108.19
2023-10-26T01:50:50.769Z,108.37
2023-10-26T01:53:19.337Z,108.18
2023-10-26T01:55:47.551Z,107.85
2023-10-26T01:58:17.142Z,108.01
2023-10-26T02:00:45.565Z,108.11
2023-10-26T02:03:14.130Z,108.07
2023-10-26T02:05:42.511Z,108.21
2023-10-26T02:08:10.757Z,108.36
2023-10-26T02:10:39.151Z,108.08
2023-10-26T02:13:07.345Z,108.34
2023-10-26T02:15:37.035Z,108.32
2023-10-26T02:18:05.876Z,108.33
2023-10-26T02:20:34.207Z,108.40
2023-10-26T02:23:03.882Z,109.10
2023-10-26T02:25:32.347Z,109.45
2023-10-26T02:28:00.615Z,109.17
2023-10-26T02:30:28.888Z,109.06
2023-10-26T02:32:58.684Z,109.06
2023-10-26T02:35:27.055Z,109.00
2023-10-26T02:37:55.425Z,108.83
2023-10-26T02:40:23.883Z,108.94
2023-10-26T02:42:53.355Z,108.93
2023-10-26T02:45:21.977Z,108.99
2023-10-26T02:47:51.317Z,109.12
2023-10-26T02:50:21.062Z,109.17
2023-10-26T02:52:49.490Z,109.10
2023-10-26T02:55:17.980Z,109.26
2023-10-26T02:57:47.217Z,109.18
2023-10-26T03:00:17.660Z,109.17
2023-10-26T03:02:46.126Z,109.11
2023-10-26T03:05:14.453Z,108.97
2023-10-26T03:07:46.654Z,108.85
2023-10-26T03:10:15.271Z,108.78
2023-10-26T03:12:46.809Z,108.78
2023-10-26T03:15:15.266Z,108.95
2023-10-26T03:17:44.886Z,108.75
2023-10-26T03:20:14.159Z,108.68
2023-10-26T03:22:43.759Z,108.88
2023-10-26T03:25:15.444Z,109.18
2023-10-26T03:27:43.755Z,108.91
2023-10-26T03:30:12.721Z,108.82
2023-10-26T03:32:41.085Z,108.72
2023-10-26T03:35:10.587Z,108.75
2023-10-26T03:37:39.306Z,108.78
2023-10-26T03:40:11.673Z,108.85
2023-10-26T03:42:39.977Z,108.72
2023-10-26T03:45:12.281Z,108.75
2023-10-26T03:47:41.174Z,108.46
2023-10-26T03:50:10.078Z,108.56
2023-10-26T03:52:39.046Z,108.69
2023-10-26T03:55:09.401Z,108.75
2023-10-26T03:57:37.684Z,108.90
2023-10-26T04:00:06.773Z,108.88
2023-10-26T04:02:40.855Z,108.66
2023-10-26T04:05:09.801Z,108.51
2023-10-26T04:07:39.427Z,108.78
2023-10-26T04:10:10.746Z,108.75
2023-10-26T04:12:39.041Z,108.75
2023-10-26T04:15:09.808Z,108.72
2023-10-26T04:17:38.208Z,108.73
2023-10-26T04:20:08.801Z,108.55
2023-10-26T04:22:40.008Z,108.59
2023-10-26T04:25:10.845Z,108.33
2023-10-26T04:27:39.175Z,108.46
2023-10-26T04:30:08.723Z,108.55
2023-10-26T04:32:37.182Z,108.62
2023-10-26T04:35:06.600Z,108.78
2023-10-26T04:37:34.906Z,108.74
2023-10-26T04:40:04.053Z,109.01
2023-10-26T04:42:33.977Z,109.74
2023-10-26T04:45:02.283Z,110.00
2023-10-26T04:47:30.636Z,109.49
2023-10-26T04:49:58.862Z,109.17
2023-10-26T04:52:27.462Z,109.42
2023-10-26T04:54:55.803Z,109.62
2023-10-26T04:57:23.994Z,109.94
2023-10-26T04:59:53.552Z,110.24
2023-10-26T05:02:22.338Z,110.00
2023-10-26T05:04:50.536Z,110.42
2023-10-26T05:07:18.864Z,110.41
2023-10-26T05:09:47.127Z,110.55
2023-10-26T05:12:15.367Z,110.33
2023-10-26T05:14:43.969Z,109.62
2023-10-26T05:17:13.684Z,109.52
2023-10-26T05:19:41.905Z,109.37
2023-10-26T05:22:10.213Z,109.07
2023-10-26T05:24:40.054Z,108.90
2023-10-26T05:27:08.335Z,108.86
2023-10-26T05:29:36.645Z,108.71
2023-10-26T05:32:05.276Z,108.40
2023-10-26T05:34:34.914Z,108.44
2023-10-26T05:37:03.212Z,108.37
2023-10-26T05:39:34.039Z,108.43
2023-10-26T05:42:05.347Z,108.48
2023-10-26T05:44:33.821Z,108.56
2023-10-26T05:47:02.057Z,108.59
2023-10-26T05:49:30.316Z,108.47
2023-10-26T05:52:02.045Z,108.51
2023-10-26T05:54:30.609Z,108.65
2023-10-26T05:56:58.945Z,108.86
2023-10-26T05:59:27.592Z,109.17
2023-10-26T06:01:56.080Z,109.39
2023-10-26T06:04:24.391Z,109.83
2023-10-26T06:06:52.626Z,110.21
2023-10-26T06:09:22.388Z,110.36
2023-10-26T06:11:50.717Z,110.63
2023-10-26T06:14:18.994Z,110.47
2023-10-26T06:16:47.522Z,110.58
2023-10-26T06:19:15.795Z,110.53
2023-10-26T06:21:44.011Z,110.15
2023-10-26T06:24:12.343Z,109.97
2023-10-26T06:26:41.991Z,110.35
2023-10-26T06:29:10.265Z,110.88
2023-10-26T06:31:38.597Z,111.52
2023-10-26T06:34:06.872Z,111.63
2023-10-26T06:36:35.163Z,111.29
2023-10-26T06:39:03.535Z,110.85
2023-10-26T06:41:31.849Z,110.26
2023-10-26T06:44:01.491Z,109.57
2023-10-26T06:46:29.901Z,109.43
2023-10-26T06:48:58.153Z,109.88
2023-10-26T06:51:26.443Z,110.14
2023-10-26T06:53:54.838Z,110.00
2023-10-26T06:56:23.102Z,110.06
2023-10-26T06:58:51.378Z,109.69
2023-10-26T07:01:21.263Z,109.10
2023-10-26T07:03:51.459Z,109.07
2023-10-26T07:06:20.110Z,109.72
2023-10-26T07:08:53.916Z,109.86
2023-10-26T07:11:24.810Z,109.90
2023-10-26T07:13:53.065Z,109.54
2023-10-26T07:16:24.103Z,109.52
2023-10-26T07:18:52.617Z,109.23
2023-10-26T07:21:23.100Z,108.69
2023-10-26T07:23:51.396Z,108.68
2023-10-26T07:26:20.028Z,108.70
2023-10-26T07:28:48.371Z,108.56
2023-10-26T07:31:21.762Z,108.71
2023-10-26T07:33:51.979Z,108.56
2023-10-26T07:36:20.458Z,108.32
2023-10-26T07:39:46.970Z,108.33
2023-10-26T07:42:08.028Z,108.28
2023-10-26T07:44:25.565Z,108.48
2023-10-26T07:46:53.830Z,108.23
2023-10-26T07:49:23.396Z,108.26
2023-10-26T07:51:51.826Z,108.52
2023-10-26T07:54:20.140Z,108.88
2023-10-26T07:56:48.396Z,108.31
2023-10-26T07:59:16.674Z,108.06
2023-10-26T08:01:45.564Z,108.26
2023-10-26T08:04:14.720Z,108.11
2023-10-26T08:06:45.002Z,107.78
2023-10-26T08:09:14.062Z,107.90
2023-10-26T08:11:43.122Z,107.87
2023-10-26T08:16:03.958Z,108.35
2023-10-26T08:17:07.534Z,108.38
2023-10-26T08:19:40.008Z,107.75
2023-10-26T08:22:11.762Z,107.43
2023-10-26T08:24:40.092Z,107.66
2023-10-26T08:27:08.349Z,107.75
2023-10-26T08:29:36.630Z,107.35
2023-10-26T08:32:06.643Z,107.43
2023-10-26T08:34:36.656Z,107.34
2023-10-26T08:39:39.717Z,107.39
2023-10-26T08:42:09.740Z,107.27
2023-10-26T08:44:40.850Z,107.41
2023-10-26T08:47:13.430Z,107.32
2023-10-26T08:49:46.182Z,107.24
2023-10-26T08:52:18.990Z,107.00
2023-10-26T08:54:48.787Z,106.95
2023-10-26T08:57:19.015Z,107.36
2023-10-26T08:59:47.324Z,106.98
2023-10-26T09:02:15.687Z,106.99
2023-10-26T09:05:02.206Z,107.27
2023-10-26T09:07:30.996Z,106.98
2023-10-26T09:10:00.620Z,107.33
2023-10-26T09:12:28.939Z,107.09
2023-10-26T09:15:01.018Z,107.27
2023-10-26T09:17:30.103Z,106.50
2023-10-26T09:19:58.792Z,106.69
2023-10-26T09:22:47.901Z,106.77
2023-10-26T09:25:17.527Z,106.92
2023-10-26T09:27:47.529Z,106.92
2023-10-26T09:30:26.867Z,106.90
2023-10-26T09:32:55.327Z,106.90
2023-10-26T09:35:28.366Z,106.92
2023-10-26T09:37:57.402Z,106.79
2023-10-26T09:40:28.843Z,106.67
2023-10-26T09:42:57.902Z,106.21
2023-10-26T09:45:27.905Z,106.47
2023-10-26T09:47:56.837Z,106.29
2023-10-26T09:50:26.209Z,106.17
2023-10-26T09:52:57.071Z,105.74
2023-10-26T09:55:27.586Z,105.71
2023-10-26T09:58:01.745Z,105.69
2023-10-26T10:00:34.516Z,106.17
2023-10-26T10:03:12.577Z,105.70
2023-10-26T10:05:42.587Z,105.63
2023-10-26T10:08:11.313Z,105.52
2023-10-26T10:11:16.829Z,105.42
2023-10-26T10:13:45.538Z,105.88
2023-10-26T10:16:51.609Z,105.85
2023-10-26T10:19:21.119Z,105.90
2023-10-26T10:21:50.200Z,105.72
2023-10-26T10:24:51.152Z,105.47
2023-10-26T10:27:20.909Z,105.95
2023-10-26T10:29:49.153Z,105.66
2023-10-26T10:32:48.131Z,105.97
2023-10-26T10:35:36.774Z,105.76
2023-10-26T10:38:23.789Z,105.67
2023-10-26T10:41:13.300Z,105.91
2023-10-26T10:43:45.505Z,106.02
2023-10-26T10:46:16.043Z,105.66
2023-10-26T10:49:01.178Z,105.76
2023-10-26T10:51:31.966Z,105.44
2023-10-26T10:54:06.133Z,105.70
2023-10-26T10:56:42.315Z,105.93
2023-10-26T10:59:19.584Z,105.60
2023-10-26T11:01:49.197Z,105.95
2023-10-26T11:04:17.635Z,105.61
2023-10-26T11:06:46.734Z,105.82
2023-10-26T11:09:25.689Z,106.28
2023-10-26T11:11:56.270Z,105.79
2023-10-26T11:14:25.980Z,106.17
2023-10-26T11:16:54.462Z,105.69
2023-10-26T11:19:22.716Z,105.96
2023-10-26T11:21:56.719Z,106.01
2023-10-26T11:24:31.573Z,105.72
2023-10-26T11:27:13.876Z,106.05
2023-10-26T11:29:44.208Z,106.13
2023-10-26T11:32:26.416Z,106.13
2023-10-26T11:35:07.143Z,106.37
2023-10-26T11:37:39.645Z,106.27
2023-10-26T11:40:10.057Z,106.46
2023-10-26T11:42:51.675Z,106.69
2023-10-26T11:45:22.939Z,106.46
2023-10-26T11:47:52.966Z,106.66
2023-10-26T11:50:22.871Z,106.78
2023-10-26T11:52:51.987Z,106.97
2023-10-26T11:55:20.893Z,107.54
2023-10-26T11:57:49.770Z,107.73
2023-10-26T12:00:19.625Z,108.27
2023-10-26T12:02:49.436Z,108.81
2023-10-26T12:05:18.989Z,108.85
2023-10-26T12:07:48.138Z,109.10
2023-10-26T12:10:19.376Z,109.01
2023-10-26T12:12:49.850Z,109.91
2023-10-26T12:15:18.900Z,109.96
2023-10-26T12:17:50.120Z,109.70
2023-10-26T12:20:20.243Z,109.78
2023-10-26T12:22:51.256Z,108.61
2023-10-26T12:25:19.588Z,108.68
2023-10-26T12:28:21.837Z,107.69
2023-10-26T12:30:36.608Z,107.93
2023-10-26T12:33:05.084Z,107.75
2023-10-26T12:35:34.716Z,107.82
2023-10-26T12:38:02.980Z,108.22
2023-10-26T12:40:31.247Z,108.59
2023-10-26T12:42:59.971Z,108.89
2023-10-26T12:45:28.389Z,108.85
2023-10-26T12:47:56.922Z,108.82
2023-10-26T12:50:25.252Z,108.20
2023-10-26T12:52:56.076Z,108.54
2023-10-26T12:55:25.092Z,107.27
2023-10-26T12:57:56.397Z,107.65
2023-10-26T13:00:25.511Z,106.98
2023-10-26T13:02:53.777Z,107.44
2023-10-26T13:05:22.085Z,106.47
2023-10-26T13:07:50.334Z,107.01
2023-10-26T13:10:19.985Z,107.01
2023-10-26T13:12:48.923Z,106.85
2023-10-26T13:15:21.218Z,106.31
2023-10-26T13:17:50.341Z,107.33
2023-10-26T13:20:18.881Z,106.83
2023-10-26T13:22:47.141Z,106.48
2023-10-26T13:25:15.527Z,106.85
2023-10-26T13:27:45.281Z,106.79
2023-10-26T13:30:15.580Z,106.19
2023-10-26T13:32:44.205Z,106.15
2023-10-26T13:35:12.931Z,106.40
2023-10-26T13:37:41.209Z,106.11
2023-10-26T13:40:10.765Z,105.67
2023-10-26T13:42:39.117Z,106.17
2023-10-26T13:45:09.465Z,106.37
2023-10-26T13:47:37.732Z,106.32
2023-10-26T13:50:06.776Z,106.33
2023-10-26T13:52:35.004Z,106.40
2023-10-26T13:55:05.073Z,106.67
2023-10-26T13:57:33.446Z,106.78
2023-10-26T14:00:01.707Z,107.11
2023-10-26T14:02:31.526Z,107.15
2023-10-26T14:04:59.795Z,107.18
2023-10-26T14:07:28.160Z,107.62
2023-10-26T14:09:56.436Z,107.15
2023-10-26T14:12:24.898Z,106.98
2023-10-26T14:14:53.140Z,106.90
2023-10-26T14:17:22.176Z,106.79
2023-10-26T14:19:51.893Z,106.52
2023-10-26T14:22:20.137Z,106.98
2023-10-26T14:24:48.887Z,106.63
2023-10-26T14:27:17.205Z,106.98
2023-10-26T14:29:45.444Z,106.88
2023-10-26T14:32:13.627Z,107.05
2023-10-26T14:34:42.008Z,106.95
2023-10-26T14:37:13.031Z,107.30
2023-10-26T14:39:41.476Z,106.76
2023-10-26T14:42:11.631Z,106.90
2023-10-26T14:44:40.540Z,107.09
2023-10-26T14:47:08.812Z,107.27
2023-10-26T14:49:37.421Z,107.56
2023-10-26T14:52:06.170Z,107.60
2023-10-26T14:54:36.863Z,107.83
2023-10-26T14:57:05.675Z,107.46
2023-10-26T14:59:34.819Z,107.55
2023-10-26T15:02:03.045Z,107.48
2023-10-26T15:04:31.237Z,107.16
2023-10-26T15:06:59.676Z,107.38
2023-10-26T15:10:20.603Z,107.29
2023-10-26T15:12:20.363Z,107.51
2023-10-26T15:14:48.781Z,107.95
2023-10-26T15:17:17.559Z,107.56
2023-10-26T15:19:45.861Z,107.98
2023-10-26T15:22:14.312Z,108.08
2023-10-26T15:24:42.789Z,108.35
2023-10-26T15:27:12.402Z,108.33
2023-10-26T15:29:43.354Z,108.46
2023-10-26T15:32:11.975Z,108.75
2023-10-26T15:34:40.262Z,109.11
2023-10-26T15:37:08.657Z,109.01
2023-10-26T15:39:37.029Z,109.27
2023-10-26T15:42:05.952Z,109.06
2023-10-26T15:44:35.186Z,108.91
2023-10-26T15:47:05.355Z,108.85
2023-10-26T15:49:42.044Z,109.45
2023-10-26T15:52:11.805Z,109.45
2023-10-26T15:54:40.444Z,109.58
2023-10-26T15:57:09.320Z,109.75
2023-10-26T15:59:37.771Z,109.75
2023-10-26T16:02:07.705Z,109.78
2023-10-26T16:04:36.442Z,109.87
2023-10-26T16:07:05.111Z,109.88
2023-10-26T16:09:37.433Z,109.94
2023-10-26T16:12:06.965Z,109.94
2023-10-26T16:14:35.288Z,109.82
2023-10-26T16:17:06.431Z,109.84
2023-10-26T16:19:36.391Z,109.71
2023-10-26T16:22:05.088Z,109.90
2023-10-26T16:24:33.393Z,110.00
2023-10-26T16:27:01.832Z,110.14
2023-10-26T16:29:30.129Z,110.15
2023-10-26T16:31:58.362Z,110.29
2023-10-26T16:34:26.687Z,110.23
2023-10-26T16:36:56.368Z,110.55
2023-10-26T16:39:25.289Z,110.71
2023-10-26T16:41:53.556Z,110.73
2023-10-26T16:44:21.768Z,110.53
2023-10-26T16:46:50.507Z,110.78
2023-10-26T16:49:18.991Z,111.00
2023-10-26T16:51:47.237Z,111.18
2023-10-26T16:54:17.177Z,111.49
2023-10-26T16:56:45.442Z,111.55
2023-10-26T16:59:13.714Z,111.55
2023-10-26T17:01:42.055Z,111.94
2023-10-26T17:04:10.409Z,111.78
2023-10-26T17:06:38.694Z,111.80
2023-10-26T17:09:07.132Z,112.07
2023-10-26T17:11:37.289Z,112.20
2023-10-26T17:14:05.796Z,112.26
2023-10-26T17:16:34.187Z,112.45
2023-10-26T17:19:02.644Z,112.68
2023-10-26T17:21:30.937Z,112.84
2023-10-26T17:23:59.234Z,112.93
2023-10-26T17:26:27.469Z,113.09
2023-10-26T17:28:57.966Z,113.05
2023-10-26T17:31:26.370Z,113.05
2023-10-26T17:33:54.614Z,113.25
2023-10-26T17:36:22.924Z,113.03
2023-10-26T17:38:51.173Z,113.08
2023-10-26T17:41:19.562Z,113.13
2023-10-26T17:43:47.969Z,113.48
2023-10-26T17:46:17.813Z,113.87
2023-10-26T17:48:46.179Z,113.93
2023-10-26T17:51:14.518Z,114.00
2023-10-26T17:53:43.161Z,114.08
2023-10-26T17:56:14.335Z,114.04
2023-10-26T17:58:43.142Z,114.00
2023-10-26T18:01:13.384Z,113.87
2023-10-26T18:03:43.579Z,114.00
2023-10-26T18:06:11.904Z,114.31
2023-10-26T18:08:41.119Z,114.38
2023-10-26T18:11:09.684Z,114.41
2023-10-26T18:13:38.726Z,114.58
2023-10-26T18:16:08.746Z,114.38
2023-10-26T18:18:37.857Z,114.13
2023-10-26T18:21:09.300Z,113.82
2023-10-26T18:23:37.968Z,113.73
2023-10-26T18:26:08.267Z,113.77
2023-10-26T18:28:38.129Z,113.84
2023-10-26T18:31:09.479Z,113.83
2023-10-26T18:33:38.605Z,114.04
2023-10-26T18:36:11.889Z,114.01
2023-10-26T18:38:42.488Z,113.98
2023-10-26T18:41:18.028Z,113.93
2023-10-26T18:43:47.304Z,113.96
2023-10-26T18:46:15.655Z,113.90
2023-10-26T18:48:44.040Z,113.79
2023-10-26T18:51:14.184Z,113.63
2023-10-26T18:53:43.136Z,113.61
2023-10-26T18:56:14.724Z,113.64
2023-10-26T18:58:43.151Z,113.58
2023-10-26T19:01:11.481Z,113.58
2023-10-26T19:03:57.419Z,113.59
2023-10-26T19:06:29.480Z,113.51
2023-10-26T19:08:58.008Z,113.41
2023-10-26T19:11:26.332Z,113.56
2023-10-26T19:13:54.697Z,113.65
2023-10-26T19:16:23.375Z,113.56
2023-10-26T19:18:51.853Z,113.38
2023-10-26T19:21:20.147Z,113.19
2023-10-26T19:23:50.175Z,113.22
2023-10-26T19:26:18.507Z,113.18
2023-10-26T19:28:46.774Z,113.17
2023-10-26T19:31:15.219Z,113.16
2023-10-26T19:33:46.282Z,113.15
2023-10-26T19:36:14.815Z,113.08
2023-10-26T19:38:43.125Z,113.09
2023-10-26T19:41:16.675Z,113.00
2023-10-26T19:43:44.968Z,112.97
2023-10-26T19:46:13.967Z,112.98
2023-10-26T19:48:42.454Z,113.00
2023-10-26T19:51:10.747Z,112.78
2023-10-26T19:53:39.000Z,112.75
2023-10-26T19:56:07.912Z,112.52
2023-10-26T19:58:37.867Z,112.56
2023-10-26T20:01:07.699Z,112.61
2023-10-26T20:03:36.073Z,112.72
2023-10-26T20:06:07.921Z,112.85
2023-10-26T20:08:36.988Z,112.76
2023-10-26T20:11:06.481Z,112.64
2023-10-26T20:13:34.858Z,112.71
2023-10-26T20:16:05.045Z,112.63
2023-10-26T20:18:39.849Z,112.40
2023-10-26T20:21:08.488Z,112.26
2023-10-26T20:23:37.173Z,112.15
2023-10-26T20:26:05.722Z,111.87
2023-10-26T20:28:33.989Z,111.74
2023-10-26T20:31:02.249Z,111.90
2023-10-26T20:33:31.995Z,112.06
2023-10-26T20:36:00.268Z,111.94
2023-10-26T20:38:28.625Z,111.92
2023-10-26T20:40:56.900Z,111.99
2023-10-26T20:43:25.224Z,111.74
2023-10-26T20:45:56.891Z,111.73
2023-10-26T20:48:25.552Z,111.77
2023-10-26T20:50:57.247Z,111.80
2023-10-26T20:53:28.878Z,111.52
2023-10-26T20:56:00.866Z,111.63
2023-10-26T20:58:30.267Z,111.33
2023-10-26T21:00:58.734Z,111.09
2023-10-26T21:03:26.998Z,111.16
2023-10-26T21:06:04.170Z,111.08
2023-10-26T21:08:32.626Z,111.20
2023-10-26T21:11:01.078Z,110.96
2023-10-26T21:13:30.038Z,110.94
2023-10-26T21:15:58.771Z,110.90
2023-10-26T21:18:27.287Z,110.97
2023-10-26T21:20:57.087Z,110.87
2023-10-26T21:23:25.304Z,110.82
2023-10-26T21:25:53.607Z,110.73
2023-10-26T21:28:21.940Z,110.78
2023-10-26T21:30:50.690Z,110.91
2023-10-26T21:33:19.017Z,110.89
2023-10-26T21:35:47.630Z,110.88
2023-10-26T21:38:18.191Z,110.99
2023-10-26T21:40:47.826Z,110.79
2023-10-26T21:43:16.205Z,110.90
2023-10-26T21:45:46.158Z,110.94
2023-10-26T21:48:15.340Z,110.92
2023-10-26T21:50:43.551Z,110.91
2023-10-26T21:53:13.112Z,110.52
2023-10-26T21:55:44.001Z,110.62
2023-10-26T21:58:12.445Z,110.81
2023-10-26T22:00:40.669Z,110.79
2023-10-26T22:03:09.048Z,111.13
2023-10-26T22:05:37.363Z,111.26
2023-10-26T22:08:05.884Z,111.45
2023-10-26T22:10:34.183Z,111.32
2023-10-26T22:13:04.232Z,111.32
2023-10-26T22:15:32.628Z,111.40
2023-10-26T22:18:00.979Z,111.69
2023-10-26T22:20:29.367Z,111.56
2023-10-26T22:26:19.562Z,111.69
2023-10-26T22:28:51.829Z,111.84
2023-10-26T22:31:21.880Z,112.11
2023-10-26T22:33:50.948Z,112.47
2023-10-26T22:36:19.671Z,112.13
2023-10-26T22:38:48.454Z,112.40
2023-10-26T22:41:17.877Z,112.71
2023-10-26T22:43:47.006Z,112.85
2023-10-26T22:46:19.841Z,113.06
2023-10-26T22:48:48.893Z,113.22
2023-10-26T22:51:18.001Z,113.43
2023-10-26T22:53:47.276Z,113.61
2023-10-26T22:56:20.536Z,113.91
2023-10-26T22:58:50.687Z,113.54
2023-10-26T23:01:22.623Z,114.12
2023-10-26T23:03:52.885Z,114.12
2023-10-26T23:06:22.631Z,114.33
2023-10-26T23:08:51.563Z,114.41
2023-10-26T23:11:23.276Z,114.53
2023-10-26T23:13:52.595Z,114.85
2023-10-26T23:16:23.445Z,114.77
2023-10-26T23:18:53.436Z,115.12
2023-10-26T23:21:22.306Z,115.10
2023-10-26T23:23:51.691Z,115.41
2023-10-26T23:26:23.121Z,115.40
2023-10-26T23:28:52.014Z,115.51
2023-10-26T23:31:20.806Z,115.96
2023-10-26T23:33:53.154Z,116.04
2023-10-26T23:36:22.060Z,115.96
2023-10-26T23:43:12.096Z,116.73
2023-10-26T23:45:40.954Z,116.84
2023-10-26T23:48:09.191Z,116.70
2023-10-26T23:50:39.803Z,116.76
2023-10-26T23:53:15.407Z,116.93
2023-10-26T23:55:44.607Z,117.11
2023-10-26T23:58:14.379Z,117.23
